sensor_id;sensor_type;location;lat;lon;timestamp;temperature;humidity
22813;DHT22;11573;51.334;3.244;2023-06-22T00:00:11;15.80;99.90
22813;DHT22;11573;51.334;3.244;2023-06-22T00:02:39;15.80;99.90
22813;DHT22;11573;51.334;3.244;2023-06-22T00:05:06;15.80;99.90
22813;DHT22;11573;51.334;3.244;2023-06-22T00:07:33;15.70;99.90
22813;DHT22;11573;51.334;3.244;2023-06-22T00:10:00;15.70;99.90
22813;DHT22;11573;51.334;3.244;2023-06-22T00:12:27;15.70;99.90
22813;DHT22;11573;51.334;3.244;2023-06-22T00:14:54;15.70;99.90
22813;DHT22;11573;51.334;3.244;2023-06-22T00:17:21;15.70;99.90
22813;DHT22;11573;51.334;3.244;2023-06-22T00:19:48;15.60;99.90
22813;DHT22;11573;51.334;3.244;2023-06-22T00:22:20;15.70;99.90
22813;DHT22;11573;51.334;3.244;2023-06-22T00:24:56;15.70;99.90
22813;DHT22;11573;51.334;3.244;2023-06-22T00:27:23;15.60;99.90
22813;DHT22;11573;51.334;3.244;2023-06-22T00:29:50;15.60;99.90
22813;DHT22;11573;51.334;3.244;2023-06-22T00:32:17;15.50;99.90
22813;DHT22;11573;51.334;3.244;2023-06-22T00:34:47;15.50;99.90
22813;DHT22;11573;51.334;3.244;2023-06-22T00:37:14;15.50;99.90
22813;DHT22;11573;51.334;3.244;2023-06-22T00:39:41;15.50;99.90
22813;DHT22;11573;51.334;3.244;2023-06-22T00:42:08;15.40;99.90
22813;DHT22;11573;51.334;3.244;2023-06-22T00:44:36;15.40;99.90
22813;DHT22;11573;51.334;3.244;2023-06-22T00:47:03;15.40;99.90
22813;DHT22;11573;51.334;3.244;2023-06-22T00:49:31;15.50;99.90
22813;DHT22;11573;51.334;3.244;2023-06-22T00:51:58;15.40;99.90
22813;DHT22;11573;51.334;3.244;2023-06-22T00:54:26;15.40;99.90
22813;DHT22;11573;51.334;3.244;2023-06-22T00:56:55;15.40;99.90
22813;DHT22;11573;51.334;3.244;2023-06-22T00:59:24;15.40;99.90
22813;DHT22;11573;51.334;3.244;2023-06-22T01:01:53;15.30;99.90
22813;DHT22;11573;51.334;3.244;2023-06-22T01:04:26;15.30;99.90
22813;DHT22;11573;51.334;3.244;2023-06-22T01:07:10;15.30;99.90
22813;DHT22;11573;51.334;3.244;2023-06-22T01:10:12;15.30;99.90
22813;DHT22;11573;51.334;3.244;2023-06-22T01:12:43;15.30;99.90
22813;DHT22;11573;51.334;3.244;2023-06-22T01:15:21;15.30;99.90
22813;DHT22;11573;51.334;3.244;2023-06-22T01:17:51;15.30;99.90
22813;DHT22;11573;51.334;3.244;2023-06-22T01:20:20;15.40;99.90
22813;DHT22;11573;51.334;3.244;2023-06-22T01:25:33;15.30;99.90
22813;DHT22;11573;51.334;3.244;2023-06-22T01:31:10;15.20;99.90
22813;DHT22;11573;51.334;3.244;2023-06-22T01:33:41;15.30;99.90
22813;DHT22;11573;51.334;3.244;2023-06-22T01:36:09;15.30;99.90
22813;DHT22;11573;51.334;3.244;2023-06-22T01:38:38;15.20;99.90
22813;DHT22;11573;51.334;3.244;2023-06-22T01:41:05;15.20;99.90
22813;DHT22;11573;51.334;3.244;2023-06-22T01:43:33;15.20;99.90
22813;DHT22;11573;51.334;3.244;2023-06-22T01:46:02;15.20;99.90
22813;DHT22;11573;51.334;3.244;2023-06-22T01:48:29;15.20;99.90
22813;DHT22;11573;51.334;3.244;2023-06-22T01:50:57;15.20;99.90
22813;DHT22;11573;51.334;3.244;2023-06-22T01:53:25;15.20;99.90
22813;DHT22;11573;51.334;3.244;2023-06-22T01:55:52;15.10;99.90
22813;DHT22;11573;51.334;3.244;2023-06-22T01:58:21;15.10;99.90
22813;DHT22;11573;51.334;3.244;2023-06-22T02:01:13;15.10;99.90
22813;DHT22;11573;51.334;3.244;2023-06-22T02:03:53;15.10;99.90
22813;DHT22;11573;51.334;3.244;2023-06-22T02:06:30;15.00;99.90
22813;DHT22;11573;51.334;3.244;2023-06-22T02:09:11;15.00;99.90
22813;DHT22;11573;51.334;3.244;2023-06-22T02:11:41;15.00;99.90
22813;DHT22;11573;51.334;3.244;2023-06-22T02:14:09;15.00;99.90
22813;DHT22;11573;51.334;3.244;2023-06-22T02:16:36;15.00;99.90
22813;DHT22;11573;51.334;3.244;2023-06-22T02:19:04;15.00;99.90
22813;DHT22;11573;51.334;3.244;2023-06-22T02:21:34;14.90;99.90
22813;DHT22;11573;51.334;3.244;2023-06-22T02:24:01;14.90;99.90
22813;DHT22;11573;51.334;3.244;2023-06-22T02:26:30;14.90;99.90
22813;DHT22;11573;51.334;3.244;2023-06-22T02:28:57;14.90;99.90
22813;DHT22;11573;51.334;3.244;2023-06-22T02:31:24;14.90;99.90
22813;DHT22;11573;51.334;3.244;2023-06-22T02:33:58;14.90;99.90
22813;DHT22;11573;51.334;3.244;2023-06-22T02:36:25;14.90;99.90
22813;DHT22;11573;51.334;3.244;2023-06-22T02:38:54;14.90;99.90
22813;DHT22;11573;51.334;3.244;2023-06-22T02:41:23;14.80;99.90
22813;DHT22;11573;51.334;3.244;2023-06-22T02:43:50;14.80;99.90
22813;DHT22;11573;51.334;3.244;2023-06-22T02:46:19;14.70;99.90
22813;DHT22;11573;51.334;3.244;2023-06-22T02:48:46;14.70;99.90
22813;DHT22;11573;51.334;3.244;2023-06-22T02:51:13;14.60;99.90
22813;DHT22;11573;51.334;3.244;2023-06-22T02:53:41;14.60;99.90
22813;DHT22;11573;51.334;3.244;2023-06-22T02:56:13;14.60;99.90
22813;DHT22;11573;51.334;3.244;2023-06-22T02:58:40;14.60;99.90
22813;DHT22;11573;51.334;3.244;2023-06-22T03:01:10;14.50;99.90
22813;DHT22;11573;51.334;3.244;2023-06-22T03:03:41;14.50;99.90
22813;DHT22;11573;51.334;3.244;2023-06-22T03:06:09;14.50;99.90
22813;DHT22;11573;51.334;3.244;2023-06-22T03:08:40;14.60;99.90
22813;DHT22;11573;51.334;3.244;2023-06-22T03:11:09;14.50;99.90
22813;DHT22;11573;51.334;3.244;2023-06-22T03:13:36;14.60;99.90
22813;DHT22;11573;51.334;3.244;2023-06-22T03:16:03;14.60;99.90
22813;DHT22;11573;51.334;3.244;2023-06-22T03:18:30;14.50;99.90
22813;DHT22;11573;51.334;3.244;2023-06-22T03:20:57;14.50;99.90
22813;DHT22;11573;51.334;3.244;2023-06-22T03:23:24;14.40;99.90
22813;DHT22;11573;51.334;3.244;2023-06-22T03:25:51;14.50;99.90
22813;DHT22;11573;51.334;3.244;2023-06-22T03:28:18;14.50;99.90
22813;DHT22;11573;51.334;3.244;2023-06-22T03:30:45;14.50;99.90
22813;DHT22;11573;51.334;3.244;2023-06-22T03:33:11;14.50;99.90
22813;DHT22;11573;51.334;3.244;2023-06-22T03:35:39;14.50;99.90
22813;DHT22;11573;51.334;3.244;2023-06-22T03:38:06;14.50;99.90
22813;DHT22;11573;51.334;3.244;2023-06-22T03:40:33;14.60;99.90
22813;DHT22;11573;51.334;3.244;2023-06-22T03:43:00;14.70;99.90
22813;DHT22;11573;51.334;3.244;2023-06-22T03:45:29;14.80;99.90
22813;DHT22;11573;51.334;3.244;2023-06-22T03:47:57;14.80;99.90
22813;DHT22;11573;51.334;3.244;2023-06-22T03:50:24;14.90;99.90
22813;DHT22;11573;51.334;3.244;2023-06-22T03:52:51;15.00;99.90
22813;DHT22;11573;51.334;3.244;2023-06-22T03:55:22;15.00;99.90
22813;DHT22;11573;51.334;3.244;2023-06-22T03:57:49;15.10;99.90
22813;DHT22;11573;51.334;3.244;2023-06-22T04:00:16;15.10;99.90
22813;DHT22;11573;51.334;3.244;2023-06-22T04:02:43;15.30;99.90
22813;DHT22;11573;51.334;3.244;2023-06-22T04:05:10;15.60;99.90
22813;DHT22;11573;51.334;3.244;2023-06-22T04:07:37;15.70;99.90
22813;DHT22;11573;51.334;3.244;2023-06-22T04:10:05;16.00;99.90
22813;DHT22;11573;51.334;3.244;2023-06-22T04:12:32;16.10;99.90
22813;DHT22;11573;51.334;3.244;2023-06-22T04:14:59;16.40;99.90
22813;DHT22;11573;51.334;3.244;2023-06-22T04:17:26;16.60;99.90
22813;DHT22;11573;51.334;3.244;2023-06-22T04:19:53;17.10;99.90
22813;DHT22;11573;51.334;3.244;2023-06-22T04:22:20;17.70;99.90
22813;DHT22;11573;51.334;3.244;2023-06-22T04:24:47;18.40;99.90
22813;DHT22;11573;51.334;3.244;2023-06-22T04:27:14;19.10;99.90
22813;DHT22;11573;51.334;3.244;2023-06-22T04:29:41;19.70;99.90
22813;DHT22;11573;51.334;3.244;2023-06-22T04:32:15;20.10;99.90
22813;DHT22;11573;51.334;3.244;2023-06-22T04:34:43;20.60;99.90
22813;DHT22;11573;51.334;3.244;2023-06-22T04:37:10;21.00;99.90
22813;DHT22;11573;51.334;3.244;2023-06-22T04:39:43;22.00;99.90
22813;DHT22;11573;51.334;3.244;2023-06-22T04:42:10;22.60;99.90
22813;DHT22;11573;51.334;3.244;2023-06-22T04:44:37;22.80;99.90
22813;DHT22;11573;51.334;3.244;2023-06-22T04:47:04;23.40;99.90
22813;DHT22;11573;51.334;3.244;2023-06-22T04:49:35;23.30;99.90
22813;DHT22;11573;51.334;3.244;2023-06-22T04:52:08;23.80;99.90
22813;DHT22;11573;51.334;3.244;2023-06-22T04:54:36;24.00;99.90
22813;DHT22;11573;51.334;3.244;2023-06-22T04:57:05;24.20;99.90
22813;DHT22;11573;51.334;3.244;2023-06-22T04:59:37;24.80;99.90
22813;DHT22;11573;51.334;3.244;2023-06-22T05:02:06;24.90;99.90
22813;DHT22;11573;51.334;3.244;2023-06-22T05:04:33;25.10;99.90
22813;DHT22;11573;51.334;3.244;2023-06-22T05:07:03;24.80;99.90
22813;DHT22;11573;51.334;3.244;2023-06-22T05:09:30;24.20;99.90
22813;DHT22;11573;51.334;3.244;2023-06-22T05:11:57;23.70;99.90
22813;DHT22;11573;51.334;3.244;2023-06-22T05:14:24;22.90;99.90
22813;DHT22;11573;51.334;3.244;2023-06-22T05:16:51;22.40;99.90
22813;DHT22;11573;51.334;3.244;2023-06-22T05:19:25;22.00;99.90
22813;DHT22;11573;51.334;3.244;2023-06-22T05:21:58;21.70;99.90
22813;DHT22;11573;51.334;3.244;2023-06-22T05:24:25;21.70;99.90
22813;DHT22;11573;51.334;3.244;2023-06-22T05:26:52;22.00;99.90
22813;DHT22;11573;51.334;3.244;2023-06-22T05:29:18;22.10;99.90
22813;DHT22;11573;51.334;3.244;2023-06-22T05:31:46;22.30;99.90
22813;DHT22;11573;51.334;3.244;2023-06-22T05:34:13;22.30;99.90
22813;DHT22;11573;51.334;3.244;2023-06-22T05:36:40;22.30;99.90
22813;DHT22;11573;51.334;3.244;2023-06-22T05:39:14;22.10;99.90
22813;DHT22;11573;51.334;3.244;2023-06-22T05:41:41;21.80;99.90
22813;DHT22;11573;51.334;3.244;2023-06-22T05:44:10;22.10;99.90
22813;DHT22;11573;51.334;3.244;2023-06-22T05:46:40;22.40;99.90
22813;DHT22;11573;51.334;3.244;2023-06-22T05:49:14;22.70;99.90
22813;DHT22;11573;51.334;3.244;2023-06-22T05:51:42;23.10;99.90
22813;DHT22;11573;51.334;3.244;2023-06-22T05:54:09;23.50;99.90
22813;DHT22;11573;51.334;3.244;2023-06-22T05:56:37;24.00;99.90
22813;DHT22;11573;51.334;3.244;2023-06-22T05:59:04;24.30;99.90
22813;DHT22;11573;51.334;3.244;2023-06-22T06:01:31;24.50;99.90
22813;DHT22;11573;51.334;3.244;2023-06-22T06:04:03;24.80;99.90
22813;DHT22;11573;51.334;3.244;2023-06-22T06:06:31;24.90;99.90
22813;DHT22;11573;51.334;3.244;2023-06-22T06:08:58;24.50;99.90
22813;DHT22;11573;51.334;3.244;2023-06-22T06:11:26;24.00;99.90
22813;DHT22;11573;51.334;3.244;2023-06-22T06:13:53;23.40;99.90
22813;DHT22;11573;51.334;3.244;2023-06-22T06:16:21;23.00;99.90
22813;DHT22;11573;51.334;3.244;2023-06-22T06:18:48;22.70;99.90
22813;DHT22;11573;51.334;3.244;2023-06-22T06:21:17;22.30;99.90
22813;DHT22;11573;51.334;3.244;2023-06-22T06:23:44;22.20;99.90
22813;DHT22;11573;51.334;3.244;2023-06-22T06:26:12;22.10;99.90
22813;DHT22;11573;51.334;3.244;2023-06-22T06:28:38;22.00;99.90
22813;DHT22;11573;51.334;3.244;2023-06-22T06:31:06;21.80;99.90
22813;DHT22;11573;51.334;3.244;2023-06-22T06:33:34;21.60;99.90
22813;DHT22;11573;51.334;3.244;2023-06-22T06:36:02;21.60;99.90
22813;DHT22;11573;51.334;3.244;2023-06-22T06:38:30;21.60;99.90
22813;DHT22;11573;51.334;3.244;2023-06-22T06:40:58;21.50;99.90
22813;DHT22;11573;51.334;3.244;2023-06-22T06:43:25;21.60;99.90
22813;DHT22;11573;51.334;3.244;2023-06-22T06:45:52;21.80;99.90
22813;DHT22;11573;51.334;3.244;2023-06-22T06:48:19;21.90;99.90
22813;DHT22;11573;51.334;3.244;2023-06-22T06:50:46;22.00;99.90
22813;DHT22;11573;51.334;3.244;2023-06-22T06:53:14;21.90;99.90
22813;DHT22;11573;51.334;3.244;2023-06-22T06:55:41;21.80;99.90
22813;DHT22;11573;51.334;3.244;2023-06-22T06:58:08;21.90;99.90
22813;DHT22;11573;51.334;3.244;2023-06-22T07:00:36;22.00;99.90
22813;DHT22;11573;51.334;3.244;2023-06-22T07:03:04;22.00;99.90
22813;DHT22;11573;51.334;3.244;2023-06-22T07:05:31;21.90;99.90
22813;DHT22;11573;51.334;3.244;2023-06-22T07:07:58;21.70;99.90
22813;DHT22;11573;51.334;3.244;2023-06-22T07:10:26;21.60;99.90
22813;DHT22;11573;51.334;3.244;2023-06-22T07:12:53;21.70;99.90
22813;DHT22;11573;51.334;3.244;2023-06-22T07:15:20;21.70;99.90
22813;DHT22;11573;51.334;3.244;2023-06-22T07:17:47;21.80;99.90
22813;DHT22;11573;51.334;3.244;2023-06-22T07:20:14;22.00;99.90
22813;DHT22;11573;51.334;3.244;2023-06-22T07:22:43;22.00;99.90
22813;DHT22;11573;51.334;3.244;2023-06-22T07:25:11;22.20;99.90
22813;DHT22;11573;51.334;3.244;2023-06-22T07:28:04;22.30;99.90
22813;DHT22;11573;51.334;3.244;2023-06-22T07:30:32;22.40;99.90
22813;DHT22;11573;51.334;3.244;2023-06-22T07:33:01;22.30;99.90
22813;DHT22;11573;51.334;3.244;2023-06-22T07:35:30;22.30;99.90
22813;DHT22;11573;51.334;3.244;2023-06-22T07:37:57;22.10;99.90
22813;DHT22;11573;51.334;3.244;2023-06-22T07:40:25;22.10;99.90
22813;DHT22;11573;51.334;3.244;2023-06-22T07:42:53;22.30;99.90
22813;DHT22;11573;51.334;3.244;2023-06-22T07:45:20;22.40;99.90
22813;DHT22;11573;51.334;3.244;2023-06-22T07:47:47;22.60;99.90
22813;DHT22;11573;51.334;3.244;2023-06-22T07:50:14;22.60;99.90
22813;DHT22;11573;51.334;3.244;2023-06-22T07:52:41;22.40;99.90
22813;DHT22;11573;51.334;3.244;2023-06-22T07:55:08;22.50;99.90
22813;DHT22;11573;51.334;3.244;2023-06-22T07:57:35;22.70;99.90
22813;DHT22;11573;51.334;3.244;2023-06-22T08:00:04;23.00;99.90
22813;DHT22;11573;51.334;3.244;2023-06-22T08:02:45;23.00;99.90
22813;DHT22;11573;51.334;3.244;2023-06-22T08:05:14;22.90;99.90
22813;DHT22;11573;51.334;3.244;2023-06-22T08:08:00;22.90;99.90
22813;DHT22;11573;51.334;3.244;2023-06-22T08:10:27;22.90;99.90
22813;DHT22;11573;51.334;3.244;2023-06-22T08:12:54;22.70;99.90
22813;DHT22;11573;51.334;3.244;2023-06-22T08:15:21;22.80;99.90
22813;DHT22;11573;51.334;3.244;2023-06-22T08:17:49;22.70;99.90
22813;DHT22;11573;51.334;3.244;2023-06-22T08:20:16;22.50;99.90
22813;DHT22;11573;51.334;3.244;2023-06-22T08:22:43;22.70;99.90
22813;DHT22;11573;51.334;3.244;2023-06-22T08:25:11;22.80;99.90
22813;DHT22;11573;51.334;3.244;2023-06-22T08:27:38;22.60;99.90
22813;DHT22;11573;51.334;3.244;2023-06-22T08:30:06;22.30;99.90
22813;DHT22;11573;51.334;3.244;2023-06-22T08:32:34;22.50;99.90
22813;DHT22;11573;51.334;3.244;2023-06-22T08:35:01;22.50;99.90
22813;DHT22;11573;51.334;3.244;2023-06-22T08:37:28;22.40;99.90
22813;DHT22;11573;51.334;3.244;2023-06-22T08:40:08;22.30;99.90
22813;DHT22;11573;51.334;3.244;2023-06-22T08:42:37;22.20;99.90
22813;DHT22;11573;51.334;3.244;2023-06-22T08:45:05;22.20;99.90
22813;DHT22;11573;51.334;3.244;2023-06-22T08:47:32;22.30;99.90
22813;DHT22;11573;51.334;3.244;2023-06-22T08:49:59;22.40;99.90
22813;DHT22;11573;51.334;3.244;2023-06-22T08:52:29;22.60;99.90
22813;DHT22;11573;51.334;3.244;2023-06-22T08:54:56;22.70;99.90
22813;DHT22;11573;51.334;3.244;2023-06-22T08:57:24;22.50;99.90
22813;DHT22;11573;51.334;3.244;2023-06-22T08:59:51;22.50;99.90
22813;DHT22;11573;51.334;3.244;2023-06-22T09:02:19;22.40;99.90
22813;DHT22;11573;51.334;3.244;2023-06-22T09:04:46;22.50;99.90
22813;DHT22;11573;51.334;3.244;2023-06-22T09:07:14;22.50;99.90
22813;DHT22;11573;51.334;3.244;2023-06-22T09:09:40;22.70;99.90
22813;DHT22;11573;51.334;3.244;2023-06-22T09:12:08;22.60;99.90
22813;DHT22;11573;51.334;3.244;2023-06-22T09:14:35;22.60;99.90
22813;DHT22;11573;51.334;3.244;2023-06-22T09:17:02;22.60;99.90
22813;DHT22;11573;51.334;3.244;2023-06-22T09:19:29;22.50;99.90
22813;DHT22;11573;51.334;3.244;2023-06-22T09:21:56;22.50;99.90
22813;DHT22;11573;51.334;3.244;2023-06-22T09:24:24;22.30;99.90
22813;DHT22;11573;51.334;3.244;2023-06-22T09:26:51;22.30;99.90
22813;DHT22;11573;51.334;3.244;2023-06-22T09:29:18;22.20;99.90
22813;DHT22;11573;51.334;3.244;2023-06-22T09:31:45;22.40;99.90
22813;DHT22;11573;51.334;3.244;2023-06-22T09:34:12;22.60;99.90
22813;DHT22;11573;51.334;3.244;2023-06-22T09:36:41;22.50;99.90
22813;DHT22;11573;51.334;3.244;2023-06-22T09:39:08;22.50;99.90
22813;DHT22;11573;51.334;3.244;2023-06-22T09:41:35;22.60;99.90
22813;DHT22;11573;51.334;3.244;2023-06-22T09:44:02;22.60;99.90
22813;DHT22;11573;51.334;3.244;2023-06-22T09:46:29;22.40;99.90
22813;DHT22;11573;51.334;3.244;2023-06-22T09:48:56;22.40;99.90
22813;DHT22;11573;51.334;3.244;2023-06-22T09:51:23;22.40;99.90
22813;DHT22;11573;51.334;3.244;2023-06-22T09:53:51;22.40;99.90
22813;DHT22;11573;51.334;3.244;2023-06-22T09:56:19;22.70;99.90
22813;DHT22;11573;51.334;3.244;2023-06-22T09:58:46;22.80;99.90
22813;DHT22;11573;51.334;3.244;2023-06-22T10:01:14;22.60;99.90
22813;DHT22;11573;51.334;3.244;2023-06-22T10:03:43;22.50;99.90
22813;DHT22;11573;51.334;3.244;2023-06-22T10:06:11;22.40;99.90
22813;DHT22;11573;51.334;3.244;2023-06-22T10:08:38;22.60;99.90
22813;DHT22;11573;51.334;3.244;2023-06-22T10:11:05;22.60;99.90
22813;DHT22;11573;51.334;3.244;2023-06-22T10:13:33;22.90;99.90
22813;DHT22;11573;51.334;3.244;2023-06-22T10:15:59;22.90;99.90
22813;DHT22;11573;51.334;3.244;2023-06-22T10:18:26;23.00;99.90
22813;DHT22;11573;51.334;3.244;2023-06-22T10:20:53;23.00;99.90
22813;DHT22;11573;51.334;3.244;2023-06-22T10:23:20;23.10;99.90
22813;DHT22;11573;51.334;3.244;2023-06-22T10:25:48;23.10;99.90
22813;DHT22;11573;51.334;3.244;2023-06-22T10:28:15;23.00;99.90
22813;DHT22;11573;51.334;3.244;2023-06-22T10:30:43;23.00;99.90
22813;DHT22;11573;51.334;3.244;2023-06-22T10:33:11;23.00;99.90
22813;DHT22;11573;51.334;3.244;2023-06-22T10:35:39;23.10;99.90
22813;DHT22;11573;51.334;3.244;2023-06-22T10:38:06;23.20;99.90
22813;DHT22;11573;51.334;3.244;2023-06-22T10:40:33;23.00;99.90
22813;DHT22;11573;51.334;3.244;2023-06-22T10:43:01;22.90;99.90
22813;DHT22;11573;51.334;3.244;2023-06-22T10:45:27;23.00;99.90
22813;DHT22;11573;51.334;3.244;2023-06-22T10:47:56;22.80;99.90
22813;DHT22;11573;51.334;3.244;2023-06-22T10:50:23;22.70;99.90
22813;DHT22;11573;51.334;3.244;2023-06-22T10:52:51;22.80;99.90
22813;DHT22;11573;51.334;3.244;2023-06-22T10:55:18;22.60;99.90
22813;DHT22;11573;51.334;3.244;2023-06-22T10:57:45;22.50;99.90
22813;DHT22;11573;51.334;3.244;2023-06-22T11:00:15;22.20;99.90
22813;DHT22;11573;51.334;3.244;2023-06-22T11:02:43;22.20;99.90
22813;DHT22;11573;51.334;3.244;2023-06-22T11:05:10;22.30;99.90
22813;DHT22;11573;51.334;3.244;2023-06-22T11:07:41;22.50;99.90
22813;DHT22;11573;51.334;3.244;2023-06-22T11:10:12;22.60;99.90
22813;DHT22;11573;51.334;3.244;2023-06-22T11:12:39;22.40;99.90
22813;DHT22;11573;51.334;3.244;2023-06-22T11:15:07;22.20;99.90
22813;DHT22;11573;51.334;3.244;2023-06-22T11:17:34;22.20;99.90
22813;DHT22;11573;51.334;3.244;2023-06-22T11:20:01;22.00;99.90
22813;DHT22;11573;51.334;3.244;2023-06-22T11:22:32;21.90;99.90
22813;DHT22;11573;51.334;3.244;2023-06-22T11:25:00;21.80;99.90
22813;DHT22;11573;51.334;3.244;2023-06-22T11:27:27;21.80;99.90
22813;DHT22;11573;51.334;3.244;2023-06-22T11:29:54;21.80;99.90
22813;DHT22;11573;51.334;3.244;2023-06-22T11:32:22;21.60;99.90
22813;DHT22;11573;51.334;3.244;2023-06-22T11:34:49;21.60;99.90
22813;DHT22;11573;51.334;3.244;2023-06-22T11:37:16;21.50;99.90
22813;DHT22;11573;51.334;3.244;2023-06-22T11:39:43;21.40;99.90
22813;DHT22;11573;51.334;3.244;2023-06-22T11:42:19;21.40;99.90
22813;DHT22;11573;51.334;3.244;2023-06-22T11:44:46;21.60;99.90
22813;DHT22;11573;51.334;3.244;2023-06-22T11:47:13;21.40;99.90
22813;DHT22;11573;51.334;3.244;2023-06-22T11:49:41;21.40;99.90
22813;DHT22;11573;51.334;3.244;2023-06-22T11:52:08;21.50;99.90
22813;DHT22;11573;51.334;3.244;2023-06-22T11:54:34;21.60;99.90
22813;DHT22;11573;51.334;3.244;2023-06-22T11:57:02;21.60;99.90
22813;DHT22;11573;51.334;3.244;2023-06-22T11:59:29;21.70;99.90
22813;DHT22;11573;51.334;3.244;2023-06-22T12:01:57;21.50;99.90
22813;DHT22;11573;51.334;3.244;2023-06-22T12:04:25;21.30;99.90
22813;DHT22;11573;51.334;3.244;2023-06-22T12:06:52;21.10;99.90
22813;DHT22;11573;51.334;3.244;2023-06-22T12:09:19;21.00;99.90
22813;DHT22;11573;51.334;3.244;2023-06-22T12:11:46;20.90;99.90
22813;DHT22;11573;51.334;3.244;2023-06-22T12:14:13;20.90;99.90
22813;DHT22;11573;51.334;3.244;2023-06-22T12:16:40;21.00;99.90
22813;DHT22;11573;51.334;3.244;2023-06-22T12:19:07;21.00;99.90
22813;DHT22;11573;51.334;3.244;2023-06-22T12:21:34;21.00;99.90
22813;DHT22;11573;51.334;3.244;2023-06-22T12:24:01;20.90;99.90
22813;DHT22;11573;51.334;3.244;2023-06-22T12:26:28;20.90;99.90
22813;DHT22;11573;51.334;3.244;2023-06-22T12:28:55;20.90;99.90
22813;DHT22;11573;51.334;3.244;2023-06-22T12:31:23;20.80;99.90
22813;DHT22;11573;51.334;3.244;2023-06-22T12:33:50;20.90;99.90
22813;DHT22;11573;51.334;3.244;2023-06-22T12:36:17;20.90;99.90
22813;DHT22;11573;51.334;3.244;2023-06-22T12:38:44;20.90;99.90
22813;DHT22;11573;51.334;3.244;2023-06-22T12:41:11;20.80;99.90
22813;DHT22;11573;51.334;3.244;2023-06-22T12:43:38;21.00;99.90
22813;DHT22;11573;51.334;3.244;2023-06-22T12:46:05;20.90;99.90
22813;DHT22;11573;51.334;3.244;2023-06-22T12:48:32;20.80;99.90
22813;DHT22;11573;51.334;3.244;2023-06-22T12:50:59;20.90;99.90
22813;DHT22;11573;51.334;3.244;2023-06-22T12:53:26;21.00;99.90
22813;DHT22;11573;51.334;3.244;2023-06-22T12:55:54;21.00;99.90
22813;DHT22;11573;51.334;3.244;2023-06-22T12:58:21;20.90;99.90
22813;DHT22;11573;51.334;3.244;2023-06-22T13:00:48;20.90;99.90
22813;DHT22;11573;51.334;3.244;2023-06-22T13:03:15;20.80;99.90
22813;DHT22;11573;51.334;3.244;2023-06-22T13:05:42;20.80;99.90
22813;DHT22;11573;51.334;3.244;2023-06-22T13:08:09;21.00;99.90
22813;DHT22;11573;51.334;3.244;2023-06-22T13:10:39;21.00;99.90
22813;DHT22;11573;51.334;3.244;2023-06-22T13:13:05;20.90;99.90
22813;DHT22;11573;51.334;3.244;2023-06-22T13:15:33;20.80;99.90
22813;DHT22;11573;51.334;3.244;2023-06-22T13:18:00;20.70;99.90
22813;DHT22;11573;51.334;3.244;2023-06-22T13:20:29;20.70;99.90
22813;DHT22;11573;51.334;3.244;2023-06-22T13:22:56;20.70;99.90
22813;DHT22;11573;51.334;3.244;2023-06-22T13:25:23;20.70;99.90
22813;DHT22;11573;51.334;3.244;2023-06-22T13:27:53;20.70;99.90
22813;DHT22;11573;51.334;3.244;2023-06-22T13:30:20;20.70;99.90
22813;DHT22;11573;51.334;3.244;2023-06-22T13:32:47;20.70;99.90
22813;DHT22;11573;51.334;3.244;2023-06-22T13:35:14;20.70;99.90
22813;DHT22;11573;51.334;3.244;2023-06-22T13:37:41;20.70;99.90
22813;DHT22;11573;51.334;3.244;2023-06-22T13:40:08;20.60;99.90
22813;DHT22;11573;51.334;3.244;2023-06-22T13:42:35;20.60;99.90
22813;DHT22;11573;51.334;3.244;2023-06-22T13:45:03;20.70;99.90
22813;DHT22;11573;51.334;3.244;2023-06-22T13:47:30;20.90;99.90
22813;DHT22;11573;51.334;3.244;2023-06-22T13:49:58;21.00;99.90
22813;DHT22;11573;51.334;3.244;2023-06-22T13:52:25;21.00;99.90
22813;DHT22;11573;51.334;3.244;2023-06-22T13:54:52;21.00;99.90
22813;DHT22;11573;51.334;3.244;2023-06-22T13:57:19;21.10;99.90
22813;DHT22;11573;51.334;3.244;2023-06-22T13:59:46;21.20;99.90
22813;DHT22;11573;51.334;3.244;2023-06-22T14:02:13;21.20;99.90
22813;DHT22;11573;51.334;3.244;2023-06-22T14:04:40;21.30;99.90
22813;DHT22;11573;51.334;3.244;2023-06-22T14:07:08;21.30;99.90
22813;DHT22;11573;51.334;3.244;2023-06-22T14:09:35;21.40;99.90
22813;DHT22;11573;51.334;3.244;2023-06-22T14:12:06;21.70;99.90
22813;DHT22;11573;51.334;3.244;2023-06-22T14:14:34;21.90;99.90
22813;DHT22;11573;51.334;3.244;2023-06-22T14:17:01;22.00;99.90
22813;DHT22;11573;51.334;3.244;2023-06-22T14:19:28;22.10;99.90
22813;DHT22;11573;51.334;3.244;2023-06-22T14:21:55;22.20;99.90
22813;DHT22;11573;51.334;3.244;2023-06-22T14:24:23;22.10;99.90
22813;DHT22;11573;51.334;3.244;2023-06-22T14:26:54;22.20;99.90
22813;DHT22;11573;51.334;3.244;2023-06-22T14:29:21;22.00;99.90
22813;DHT22;11573;51.334;3.244;2023-06-22T14:31:49;21.90;99.90
22813;DHT22;11573;51.334;3.244;2023-06-22T14:34:16;22.00;99.90
22813;DHT22;11573;51.334;3.244;2023-06-22T14:36:43;22.10;99.90
22813;DHT22;11573;51.334;3.244;2023-06-22T14:39:10;22.20;99.90
22813;DHT22;11573;51.334;3.244;2023-06-22T14:41:37;22.30;99.90
22813;DHT22;11573;51.334;3.244;2023-06-22T14:44:04;22.00;99.90
22813;DHT22;11573;51.334;3.244;2023-06-22T14:46:31;21.90;99.90
22813;DHT22;11573;51.334;3.244;2023-06-22T14:48:58;21.90;99.90
22813;DHT22;11573;51.334;3.244;2023-06-22T14:51:25;21.60;99.90
22813;DHT22;11573;51.334;3.244;2023-06-22T14:53:53;21.70;99.90
22813;DHT22;11573;51.334;3.244;2023-06-22T14:56:20;21.70;99.90
22813;DHT22;11573;51.334;3.244;2023-06-22T14:58:47;21.50;99.90
22813;DHT22;11573;51.334;3.244;2023-06-22T15:01:16;21.30;99.90
22813;DHT22;11573;51.334;3.244;2023-06-22T15:03:44;21.40;99.90
22813;DHT22;11573;51.334;3.244;2023-06-22T15:06:11;21.40;99.90
22813;DHT22;11573;51.334;3.244;2023-06-22T15:08:39;21.20;99.90
22813;DHT22;11573;51.334;3.244;2023-06-22T15:11:06;21.10;99.90
22813;DHT22;11573;51.334;3.244;2023-06-22T15:13:33;21.20;99.90
22813;DHT22;11573;51.334;3.244;2023-06-22T15:16:02;21.20;99.90
22813;DHT22;11573;51.334;3.244;2023-06-22T15:18:32;21.30;99.90
22813;DHT22;11573;51.334;3.244;2023-06-22T15:21:03;21.30;99.90
22813;DHT22;11573;51.334;3.244;2023-06-22T15:23:31;21.30;99.90
22813;DHT22;11573;51.334;3.244;2023-06-22T15:26:01;21.30;99.90
22813;DHT22;11573;51.334;3.244;2023-06-22T15:28:29;21.20;99.90
22813;DHT22;11573;51.334;3.244;2023-06-22T15:30:56;21.30;99.90
22813;DHT22;11573;51.334;3.244;2023-06-22T15:33:24;21.30;99.90
22813;DHT22;11573;51.334;3.244;2023-06-22T15:35:51;21.30;99.90
22813;DHT22;11573;51.334;3.244;2023-06-22T15:38:22;21.20;99.90
22813;DHT22;11573;51.334;3.244;2023-06-22T15:40:49;21.10;99.90